Time;durP1;ratioP1;P1;durP2;ratioP2;P2;SDS_P1;SDS_P2;PMS_P1;PMS_P2;Temp;Humidity;BMP_temperature;BMP_pressure;BME280_temperature;BME280_humidity;BME280_pressure;Samples;Min_cycle;Max_cycle;Signal;HPM_P1;HPM_P2
2021/04/26 00:04:07;;;;;;;9.30;8.80;;;23.70;68.70;;;;;;6282071;22;20442;-46
2021/04/26 00:07:11;;;;;;;8.17;7.77;;;23.70;68.70;;;;;;6281038;22;20434;-46
2021/04/26 00:11:49;;;;;;;8.83;8.20;;;23.70;68.70;;;;;;6282268;22;20438;-45
2021/04/26 00:14:17;;;;;;;9.93;9.20;;;23.70;68.70;;;;;;6282378;22;20427;-46
2021/04/26 00:19:49;;;;;;;8.80;8.27;;;23.70;68.80;;;;;;6282992;22;20520;-47
2021/04/26 00:24:27;;;;;;;9.10;8.30;;;23.70;68.80;;;;;;6282928;22;20489;-46
2021/04/26 00:29:07;;;;;;;9.10;8.60;;;23.70;68.70;;;;;;6280324;22;20430;-47
2021/04/26 00:33:45;;;;;;;9.60;9.10;;;23.70;68.80;;;;;;6285336;22;20451;-47
2021/04/26 00:38:23;;;;;;;8.90;8.30;;;23.70;68.80;;;;;;6284293;22;20570;-47
2021/04/26 00:42:39;;;;;;;10.27;9.50;;;23.70;68.80;;;;;;6282730;22;20427;-45
2021/04/26 00:47:14;;;;;;;8.80;8.40;;;23.60;68.80;;;;;;6283250;22;20523;-46
2021/04/26 00:50:24;;;;;;;8.90;8.40;;;23.70;68.80;;;;;;6283942;22;20535;-47
2021/04/26 00:55:00;;;;;;;9.87;9.17;;;23.70;68.90;;;;;;6283582;22;20458;-45
2021/04/26 00:58:04;;;;;;;8.80;8.20;;;23.70;68.90;;;;;;6265560;22;20456;-48
2021/04/26 01:03:03;;;;;;;9.40;8.80;;;23.60;68.80;;;;;;6283830;22;20551;-47
2021/04/26 01:07:21;;;;;;;8.53;8.03;;;23.60;68.80;;;;;;6280671;22;20569;-49
2021/04/26 01:12:08;;;;;;;8.80;8.20;;;23.70;68.90;;;;;;6284804;22;20466;-47
2021/04/26 01:14:42;;;;;;;9.10;8.60;;;23.70;69.00;;;;;;6284544;22;20439;-47
2021/04/26 01:19:06;;;;;;;9.23;8.73;;;23.60;68.90;;;;;;6284577;22;20438;-46
2021/04/26 01:24:11;;;;;;;9.20;8.70;;;23.60;68.90;;;;;;6282816;22;20434;-45
2021/04/26 01:29:14;;;;;;;8.40;8.00;;;23.60;68.90;;;;;;6283066;22;20430;-46
2021/04/26 01:32:31;;;;;;;10.07;9.47;;;23.60;68.90;;;;;;6285322;22;20433;-48
2021/04/26 01:37:08;;;;;;;8.87;8.27;;;23.60;69.00;;;;;;6283531;22;20449;-46
2021/04/26 01:41:27;;;;;;;9.33;8.73;;;23.60;68.90;;;;;;6283665;22;20442;-46
2021/04/26 01:46:19;;;;;;;9.13;8.63;;;23.60;69.00;;;;;;6283935;22;20432;-46
2021/04/26 01:48:50;;;;;;;8.37;7.97;;;23.60;69.00;;;;;;6258142;22;20423;-47
2021/04/26 01:51:55;;;;;;;8.90;8.30;;;23.60;69.00;;;;;;6285764;22;20545;-46
2021/04/26 01:55:00;;;;;;;9.03;8.33;;;23.60;69.00;;;;;;6264998;22;20438;-45
2021/04/26 01:59:54;;;;;;;9.50;9.00;;;23.60;69.00;;;;;;6284828;22;20438;-48
2021/04/26 02:02:32;;;;;;;9.07;8.40;;;23.60;69.00;;;;;;6254375;22;20432;-47
2021/04/26 02:07:12;;;;;;;9.60;9.10;;;23.60;69.10;;;;;;6283882;22;20468;-46
2021/04/26 02:12:07;;;;;;;9.60;9.10;;;23.60;69.00;;;;;;6284343;22;20435;-46
2021/04/26 02:16:49;;;;;;;8.63;8.13;;;23.60;69.10;;;;;;6282681;22;20482;-46
2021/04/26 02:21:23;;;;;;;8.73;8.23;;;23.60;69.10;;;;;;6283461;22;20438;-47
2021/04/26 02:24:28;;;;;;;7.90;7.60;;;23.60;69.10;;;;;;6265178;22;20438;-46
2021/04/26 02:29:04;;;;;;;8.30;7.90;;;23.50;69.00;;;;;;6283851;22;20461;-46
2021/04/26 02:31:33;;;;;;;8.67;8.17;;;23.60;69.10;;;;;;6255792;22;20419;-46
2021/04/26 02:34:45;;;;;;;9.10;8.60;;;23.60;69.20;;;;;;6283697;22;20756;-47
2021/04/26 02:37:24;;;;;;;9.33;8.83;;;23.60;69.20;;;;;;6255803;22;20417;-47
2021/04/26 02:42:03;;;;;;;9.30;8.80;;;23.50;69.10;;;;;;6283579;22;20470;-45
2021/04/26 02:45:14;;;;;;;9.00;8.60;;;23.50;69.00;;;;;;6264626;22;20459;-46
2021/04/26 02:50:18;;;;;;;9.60;9.00;;;23.60;69.20;;;;;;6280187;22;20996;-47
2021/04/26 02:54:44;;;;;;;9.40;8.70;;;23.60;69.20;;;;;;6281496;22;20450;-46
2021/04/26 02:59:25;;;;;;;9.03;8.50;;;23.50;69.10;;;;;;6282288;22;20438;-47
2021/04/26 03:03:48;;;;;;;10.40;9.70;;;23.50;69.20;;;;;;6279691;22;20441;-46
2021/04/26 03:08:27;;;;;;;9.20;8.70;;;23.50;69.20;;;;;;6283336;22;20435;-46
2021/04/26 03:10:54;;;;;;;9.57;8.80;;;23.50;69.20;;;;;;6255148;22;20418;-45
2021/04/26 03:13:22;;;;;;;9.87;9.37;;;23.50;69.20;;;;;;6279891;22;20417;-45
2021/04/26 03:15:50;;;;;;;9.97;9.47;;;23.50;69.20;;;;;;6278868;22;20437;-45
2021/04/26 03:20:25;;;;;;;10.50;9.87;;;23.50;69.30;;;;;;6278679;22;20423;-45
2021/04/26 03:23:16;;;;;;;10.10;9.60;;;23.50;69.20;;;;;;6280516;22;20665;-45
2021/04/26 03:26:25;;;;;;;9.17;8.77;;;23.50;69.20;;;;;;6261621;22;20536;-46
2021/04/26 03:28:52;;;;;;;10.23;9.63;;;23.50;69.30;;;;;;6281068;22;20461;-46
2021/04/26 03:33:30;;;;;;;9.53;9.03;;;23.50;69.30;;;;;;6282597;22;20516;-47
2021/04/26 03:35:57;;;;;;;10.40;9.90;;;23.50;69.20;;;;;;6256987;22;20419;-45
2021/04/26 03:38:25;;;;;;;9.40;8.90;;;23.50;69.30;;;;;;6284824;22;20647;-46
2021/04/26 03:41:29;;;;;;;9.97;9.47;;;23.50;69.30;;;;;;6263713;22;20413;-45
2021/04/26 03:44:35;;;;;;;10.23;9.73;;;23.50;69.30;;;;;;6262679;22;20619;-45
2021/04/26 03:47:24;;;;;;;10.50;9.90;;;23.50;69.30;;;;;;6282255;22;20493;-46
2021/04/26 03:50:14;;;;;;;10.70;10.10;;;23.50;69.30;;;;;;6260031;22;20536;-46
2021/04/26 03:53:08;;;;;;;10.23;9.73;;;23.50;69.30;;;;;;6236124;22;20913;-46
2021/04/26 03:56:07;;;;;;;10.67;10.17;;;23.50;69.30;;;;;;6266933;22;20494;-46
2021/04/26 03:59:13;;;;;;;11.13;10.60;;;23.50;69.30;;;;;;6264202;22;20425;-46
2021/04/26 04:03:52;;;;;;;11.10;10.50;;;23.50;69.30;;;;;;6283412;22;20742;-46
2021/04/26 04:06:22;;;;;;;10.97;10.37;;;23.50;69.30;;;;;;6281824;22;20551;-46
2021/04/26 04:11:19;;;;;;;10.23;9.73;;;23.50;69.40;;;;;;6283607;22;20871;-46
2021/04/26 04:14:15;;;;;;;11.57;10.43;;;23.50;69.30;;;;;;6253441;22;20905;-46
2021/04/26 04:18:34;;;;;;;11.60;10.90;;;23.50;69.40;;;;;;6278009;22;21042;-45
2021/04/26 04:21:01;;;;;;;10.50;10.00;;;23.40;69.30;;;;;;6282609;22;20433;-46
2021/04/26 04:25:37;;;;;;;10.67;10.07;;;23.50;69.40;;;;;;6281500;22;20852;-46
2021/04/26 04:30:14;;;;;;;10.40;9.90;;;23.50;69.40;;;;;;6278961;22;20691;-46
2021/04/26 04:35:08;;;;;;;10.23;9.67;;;23.50;69.40;;;;;;6280756;22;20445;-45
2021/04/26 04:40:02;;;;;;;10.23;9.73;;;23.50;69.50;;;;;;6279989;22;21029;-46
2021/04/26 04:42:49;;;;;;;10.27;9.67;;;23.40;69.30;;;;;;6265314;22;20465;-46
2021/04/26 04:47:24;;;;;;;10.70;10.00;;;23.40;69.40;;;;;;6278411;22;20502;-48
2021/04/26 04:52:19;;;;;;;9.67;9.27;;;23.40;69.40;;;;;;6279839;22;20810;-45
2021/04/26 04:56:54;;;;;;;10.50;10.00;;;23.40;69.40;;;;;;6277938;22;20422;-45
2021/04/26 04:59:22;;;;;;;10.50;9.83;;;23.40;69.40;;;;;;6278020;22;20805;-48
2021/04/26 05:01:57;;;;;;;10.40;9.87;;;23.40;69.50;;;;;;6278016;22;20437;-45
2021/04/26 05:06:54;;;;;;;10.37;9.67;;;23.40;69.50;;;;;;6275807;22;20444;-46
2021/04/26 05:11:51;;;;;;;9.67;9.10;;;23.40;69.50;;;;;;6276951;22;20467;-46
2021/04/26 05:17:10;;;;;;;9.83;9.43;;;23.40;69.50;;;;;;6278551;22;20546;-45
2021/04/26 05:21:49;;;;;;;10.60;10.00;;;23.40;69.50;;;;;;6275924;22;20438;-45
2021/04/26 05:26:26;;;;;;;10.47;9.97;;;23.40;69.60;;;;;;6272756;22;20453;-45
2021/04/26 05:29:31;;;;;;;10.07;9.57;;;23.40;69.60;;;;;;6272622;22;20840;-46
2021/04/26 05:31:59;;;;;;;9.63;9.13;;;23.40;69.70;;;;;;6271071;22;20420;-46
2021/04/26 05:34:28;;;;;;;10.90;10.30;;;23.40;69.70;;;;;;6218426;22;20445;-46
2021/04/26 05:39:07;;;;;;;11.73;10.80;;;23.40;69.70;;;;;;6270834;22;20534;-46
2021/04/26 05:43:51;;;;;;;10.60;9.80;;;23.40;69.70;;;;;;6266272;22;20440;-46
2021/04/26 05:46:57;;;;;;;10.80;10.30;;;23.40;69.70;;;;;;6264243;22;20534;-46
2021/04/26 05:51:50;;;;;;;9.70;9.20;;;23.40;69.70;;;;;;6261423;22;20441;-46
2021/04/26 05:56:47;;;;;;;10.73;10.13;;;23.40;69.70;;;;;;6259849;22;20494;-45
2021/04/26 05:59:14;;;;;;;10.33;9.70;;;23.40;69.90;;;;;;6261159;22;20599;-46
2021/04/26 06:03:50;;;;;;;10.10;9.50;;;23.40;70.20;;;;;;6260313;22;20434;-44
2021/04/26 06:08:48;;;;;;;9.70;9.13;;;23.40;70.70;;;;;;6253778;22;20484;-46
2021/04/26 06:13:29;;;;;;;9.70;9.20;;;23.50;70.80;;;;;;6248396;22;20530;-46
2021/04/26 06:18:10;;;;;;;10.47;9.87;;;23.40;70.70;;;;;;6247715;22;20532;-45
2021/04/26 06:23:08;;;;;;;9.53;8.73;;;23.40;71.00;;;;;;6250060;22;20654;-47
2021/04/26 06:28:05;;;;;;;8.70;8.30;;;23.50;71.20;;;;;;6248088;22;20802;-46
2021/04/26 06:32:43;;;;;;;9.13;8.53;;;23.50;71.50;;;;;;6249816;22;20450;-47
2021/04/26 06:35:50;;;;;;;9.50;8.60;;;23.50;71.60;;;;;;6246227;22;20543;-46
2021/04/26 06:40:25;;;;;;;9.67;9.10;;;23.50;71.70;;;;;;6246534;22;20450;-45
2021/04/26 06:45:21;;;;;;;9.27;8.77;;;23.50;71.80;;;;;;6250582;22;20870;-46
2021/04/26 06:50:19;;;;;;;10.33;9.33;;;23.50;72.00;;;;;;6252368;22;20536;-46
2021/04/26 06:55:16;;;;;;;9.63;9.03;;;23.60;72.30;;;;;;6243608;22;20469;-45
2021/04/26 06:58:23;;;;;;;9.00;8.40;;;23.60;72.40;;;;;;6244609;22;20460;-47
2021/04/26 07:03:58;;;;;;;9.47;8.87;;;23.60;72.60;;;;;;6245371;22;20643;-46
2021/04/26 07:08:35;;;;;;;9.80;9.10;;;23.60;72.70;;;;;;6244725;22;20454;-45
2021/04/26 07:13:32;;;;;;;9.33;8.73;;;23.60;72.70;;;;;;6246617;22;20656;-46
2021/04/26 07:18:11;;;;;;;8.80;8.30;;;23.60;72.80;;;;;;6246650;22;20623;-46
2021/04/26 07:22:46;;;;;;;9.03;8.47;;;23.60;72.90;;;;;;6238491;22;20457;-47
2021/04/26 07:27:19;;;;;;;8.60;8.10;;;23.70;73.00;;;;;;6245019;22;20700;-47
2021/04/26 07:32:17;;;;;;;9.13;8.43;;;23.70;73.00;;;;;;6244098;22;20754;-47
2021/04/26 07:35:23;;;;;;;9.20;8.60;;;23.70;73.00;;;;;;6246018;22;20430;-45
2021/04/26 07:40:04;;;;;;;9.30;8.60;;;23.60;73.00;;;;;;6245536;22;20548;-47
2021/04/26 07:42:31;;;;;;;9.13;8.63;;;23.70;73.20;;;;;;6245829;22;20792;-46
2021/04/26 07:45:35;;;;;;;9.17;8.30;;;23.70;73.20;;;;;;6247625;22;20510;-45
2021/04/26 07:48:42;;;;;;;9.73;9.00;;;23.70;73.20;;;;;;6255464;22;20427;-45
2021/04/26 07:51:08;;;;;;;10.30;9.33;;;23.70;73.20;;;;;;6253036;22;20457;-44
2021/04/26 07:55:26;;;;;;;9.60;8.60;;;23.70;73.20;;;;;;6249503;22;20597;-45
2021/04/26 07:57:55;;;;;;;9.93;9.20;;;23.70;73.00;;;;;;6250996;22;20429;-45
2021/04/26 08:00:42;;;;;;;10.70;9.50;;;23.60;72.70;;;;;;6154573;22;20556;-45
2021/04/26 08:03:29;;;;;;;11.53;9.83;;;23.60;73.40;;;;;;6158693;22;21029;-44
2021/04/26 08:06:16;;;;;;;9.83;9.00;;;23.60;72.80;;;;;;6176666;22;20614;-44
2021/04/26 08:09:04;;;;;;;10.87;9.80;;;23.70;73.00;;;;;;6173848;22;20453;-44
2021/04/26 08:11:52;;;;;;;10.23;9.13;;;23.60;72.90;;;;;;6121853;22;20462;-44
2021/04/26 08:14:40;;;;;;;11.13;8.70;;;23.70;72.90;;;;;;6184965;22;20835;-44
2021/04/26 08:17:28;;;;;;;12.63;9.33;;;23.70;72.80;;;;;;6186009;22;20986;-43
2021/04/26 08:20:16;;;;;;;10.97;9.83;;;23.60;72.60;;;;;;6197599;22;20434;-45
2021/04/26 08:23:03;;;;;;;16.60;10.13;;;23.60;72.40;;;;;;6161966;22;20528;-39
2021/04/26 08:25:51;;;;;;;16.67;9.90;;;23.60;72.20;;;;;;6181013;22;20481;-38
2021/04/26 08:28:40;;;;;;;14.98;10.13;;;23.70;71.80;;;;;;6158280;22;21223;-37
2021/04/26 08:31:27;;;;;;;10.77;9.77;;;23.70;71.60;;;;;;6201555;22;20398;-39
2021/04/26 08:34:13;;;;;;;10.30;9.50;;;23.70;71.10;;;;;;6162291;22;20217;-37
2021/04/26 08:37:01;;;;;;;9.40;8.87;;;23.70;70.90;;;;;;6181954;22;20744;-37
2021/04/26 08:39:48;;;;;;;10.97;9.97;;;23.70;70.80;;;;;;6178252;22;20693;-38
2021/04/26 08:42:35;;;;;;;10.70;9.80;;;23.70;70.80;;;;;;6164179;22;20454;-37
2021/04/26 08:45:28;;;;;;;10.10;9.23;;;23.70;70.70;;;;;;6180513;22;20542;-38
2021/04/26 08:48:15;;;;;;;12.10;10.60;;;23.70;70.80;;;;;;6160344;22;20766;-37
2021/04/26 08:51:02;;;;;;;10.70;9.70;;;23.70;70.80;;;;;;6162277;22;20512;-37
2021/04/26 08:53:49;;;;;;;10.47;9.70;;;23.80;70.90;;;;;;6179970;22;20789;-37
2021/04/26 08:56:36;;;;;;;13.27;10.63;;;23.70;70.80;;;;;;6186943;22;20697;-37
2021/04/26 08:59:23;;;;;;;11.27;10.07;;;23.70;70.90;;;;;;6160057;22;20621;-37
2021/04/26 09:02:12;;;;;;;9.93;9.00;;;23.80;71.00;;;;;;6161335;22;20664;-37
2021/04/26 09:04:47;;;;;;;11.03;10.33;;;23.70;71.00;;;;;;6243763;22;20443;-37
2021/04/26 09:07:14;;;;;;;10.50;9.50;;;23.50;54.70;;;;;;6243060;22;20618;-37
2021/04/26 09:09:42;;;;;;;10.10;9.27;;;23.30;57.80;;;;;;6245617;22;20454;-36
2021/04/26 09:12:15;;;;;;;9.30;8.57;;;23.40;61.30;;;;;;6252030;22;20825;-37
2021/04/26 09:14:46;;;;;;;10.20;9.33;;;23.50;65.00;;;;;;6250578;22;20438;-36
2021/04/26 09:17:35;;;;;;;10.00;9.30;;;23.50;67.30;;;;;;6248508;22;20714;-36
2021/04/26 09:20:25;;;;;;;10.37;9.50;;;23.50;69.20;;;;;;6246090;22;20826;-36
2021/04/26 09:22:54;;;;;;;10.23;9.23;;;23.60;70.30;;;;;;6170536;22;20461;-36
2021/04/26 09:25:33;;;;;;;10.47;9.50;;;23.60;70.90;;;;;;6243781;22;20502;-36
2021/04/26 09:28:03;;;;;;;9.60;9.00;;;23.70;71.60;;;;;;6242617;22;20499;-36
2021/04/26 09:30:45;;;;;;;10.20;9.60;;;23.70;72.10;;;;;;6243069;22;20764;-36
2021/04/26 09:33:34;;;;;;;10.63;9.83;;;23.70;72.70;;;;;;6214506;22;20485;-36
2021/04/26 09:36:12;;;;;;;10.00;9.33;;;23.70;73.10;;;;;;6253000;22;20888;-35
2021/04/26 09:38:40;;;;;;;10.87;9.93;;;23.70;73.90;;;;;;6253242;22;20453;-35
2021/04/26 09:41:09;;;;;;;10.37;9.77;;;23.70;74.00;;;;;;6245407;22;20494;-35
2021/04/26 09:43:36;;;;;;;9.60;9.03;;;23.70;74.00;;;;;;6247016;22;20565;-35
2021/04/26 09:46:03;;;;;;;10.80;10.10;;;23.70;74.00;;;;;;6243348;22;20611;-35
2021/04/26 09:48:32;;;;;;;10.87;10.17;;;23.70;67.80;;;;;;6244946;22;20635;-36
2021/04/26 09:51:01;;;;;;;11.53;10.53;;;23.60;60.80;;;;;;6216724;22;20526;-35
2021/04/26 09:53:33;;;;;;;9.90;8.90;;;23.50;59.20;;;;;;6243976;22;20407;-35
2021/04/26 09:56:11;;;;;;;11.47;9.00;;;23.50;59.80;;;;;;6247243;22;20830;-36
2021/04/26 09:58:40;;;;;;;10.20;9.40;;;23.50;62.40;;;;;;6249168;22;20437;-36
2021/04/26 10:01:06;;;;;;;10.63;9.63;;;23.50;63.20;;;;;;6239758;22;20839;-36
2021/04/26 10:03:34;;;;;;;13.47;9.73;;;23.50;65.20;;;;;;6244728;22;20425;-36
2021/04/26 10:06:01;;;;;;;10.30;9.60;;;23.60;66.10;;;;;;6243803;22;20433;-35
2021/04/26 10:08:28;;;;;;;10.30;9.50;;;23.60;66.60;;;;;;6243041;22;20434;-36
2021/04/26 10:10:56;;;;;;;10.13;9.13;;;23.60;67.00;;;;;;6244519;22;20509;-36
2021/04/26 10:13:23;;;;;;;10.07;9.37;;;23.60;67.20;;;;;;6243863;22;20840;-35
2021/04/26 10:15:56;;;;;;;9.33;8.70;;;23.60;67.60;;;;;;6244109;22;21172;-35
2021/04/26 10:18:29;;;;;;;9.97;9.13;;;23.60;67.90;;;;;;6251022;22;20438;-36
2021/04/26 10:20:56;;;;;;;9.80;9.00;;;23.60;68.00;;;;;;6249038;22;20467;-35
2021/04/26 10:23:46;;;;;;;10.97;9.50;;;23.60;68.20;;;;;;6244579;22;20836;-35
2021/04/26 10:26:42;;;;;;;10.60;9.60;;;23.60;68.40;;;;;;6242717;22;20566;-35
2021/04/26 10:29:12;;;;;;;8.93;8.23;;;23.60;68.50;;;;;;6227799;22;20482;-36
2021/04/26 10:32:05;;;;;;;9.23;8.70;;;23.70;68.60;;;;;;6230365;22;20931;-36
2021/04/26 10:34:33;;;;;;;10.30;9.60;;;23.70;68.70;;;;;;6231202;22;20528;-36
2021/04/26 10:37:03;;;;;;;9.83;9.03;;;23.70;68.80;;;;;;6232623;22;20555;-36
2021/04/26 10:39:32;;;;;;;9.90;9.20;;;23.70;68.90;;;;;;6233218;22;20435;-35
2021/04/26 10:42:08;;;;;;;9.53;8.90;;;23.70;69.10;;;;;;6211988;22;20478;-35
2021/04/26 10:44:54;;;;;;;10.57;9.80;;;23.70;69.20;;;;;;6249918;22;20446;-35
2021/04/26 10:47:26;;;;;;;9.53;8.90;;;23.70;69.40;;;;;;6247424;22;20516;-35
2021/04/26 10:50:30;;;;;;;9.97;9.17;;;23.70;69.60;;;;;;6242810;22;20985;-35
2021/04/26 10:53:00;;;;;;;10.57;9.70;;;23.70;69.70;;;;;;6217515;22;20685;-35
2021/04/26 10:55:50;;;;;;;9.47;8.90;;;23.70;69.80;;;;;;6250861;22;20446;-35
2021/04/26 10:58:33;;;;;;;10.50;9.80;;;23.70;69.90;;;;;;6248485;22;20797;-36
2021/04/26 11:01:00;;;;;;;9.80;9.20;;;23.70;69.90;;;;;;6241939;22;20742;-35
2021/04/26 11:03:42;;;;;;;9.60;8.93;;;23.70;70.00;;;;;;6244574;22;20901;-35
2021/04/26 11:06:19;;;;;;;9.13;8.60;;;23.70;70.10;;;;;;6243976;22;20462;-36
2021/04/26 11:08:50;;;;;;;10.67;10.00;;;23.70;70.10;;;;;;6245117;22;20455;-36
2021/04/26 11:11:45;;;;;;;10.10;9.53;;;23.80;70.30;;;;;;6247278;22;20516;-36
2021/04/26 11:14:24;;;;;;;11.20;10.27;;;23.70;70.20;;;;;;6243516;22;20450;-36
2021/04/26 11:17:04;;;;;;;10.13;9.43;;;23.80;70.30;;;;;;6242485;22;21236;-36
2021/04/26 11:19:34;;;;;;;10.53;9.83;;;23.70;70.20;;;;;;6249034;22;20483;-35
2021/04/26 11:22:03;;;;;;;10.23;9.60;;;23.80;70.30;;;;;;6222435;22;20595;-35
2021/04/26 11:24:51;;;;;;;10.57;9.77;;;23.70;70.20;;;;;;6220250;22;20470;-35
2021/04/26 11:27:24;;;;;;;10.73;10.03;;;23.70;70.30;;;;;;6248396;22;20488;-35
2021/04/26 11:30:21;;;;;;;10.37;9.70;;;23.80;70.30;;;;;;6247283;22;20558;-36
2021/04/26 11:32:57;;;;;;;10.80;10.10;;;23.70;70.30;;;;;;6219518;22;20449;-36
2021/04/26 11:35:25;;;;;;;10.30;9.73;;;23.70;70.30;;;;;;6250685;22;20434;-35
2021/04/26 11:37:53;;;;;;;9.83;9.33;;;23.70;70.40;;;;;;6253500;22;20449;-35
2021/04/26 11:40:25;;;;;;;11.13;10.10;;;23.70;70.30;;;;;;6249607;22;20869;-36
2021/04/26 11:43:02;;;;;;;11.17;10.27;;;23.70;70.40;;;;;;6251128;22;20976;-35
2021/04/26 11:45:28;;;;;;;10.87;9.90;;;23.70;70.50;;;;;;6245780;22;20997;-35
2021/04/26 11:47:55;;;;;;;10.87;10.13;;;23.70;70.50;;;;;;6245105;22;20701;-36
2021/04/26 11:50:22;;;;;;;11.37;10.63;;;23.70;70.50;;;;;;6251100;22;20444;-35
2021/04/26 11:52:48;;;;;;;11.27;10.67;;;23.70;70.50;;;;;;6246957;22;20501;-36
2021/04/26 11:55:17;;;;;;;10.70;9.83;;;23.70;70.60;;;;;;6223085;22;20515;-41
2021/04/26 11:57:49;;;;;;;10.40;9.80;;;23.70;70.60;;;;;;6247270;22;20668;-40
2021/04/26 12:00:19;;;;;;;11.20;10.40;;;23.70;70.60;;;;;;6249698;22;20426;-42
2021/04/26 12:02:48;;;;;;;10.53;9.83;;;23.70;70.70;;;;;;6222707;22;20489;-41
2021/04/26 12:05:16;;;;;;;9.73;9.23;;;23.70;70.70;;;;;;6253049;22;20430;-42
2021/04/26 12:07:45;;;;;;;10.37;9.67;;;23.70;70.70;;;;;;6253965;22;20421;-41
2021/04/26 12:10:13;;;;;;;9.63;9.07;;;23.70;70.70;;;;;;6231636;22;21027;-42
2021/04/26 12:12:41;;;;;;;10.00;9.43;;;23.70;70.80;;;;;;6255358;22;20463;-41
2021/04/26 12:15:24;;;;;;;9.90;9.40;;;23.70;70.80;;;;;;6253090;22;20458;-40
2021/04/26 12:18:05;;;;;;;9.90;9.40;;;23.80;71.00;;;;;;6257517;22;20438;-35
2021/04/26 12:20:36;;;;;;;9.47;8.90;;;23.70;70.90;;;;;;6254214;22;20439;-36
2021/04/26 12:23:05;;;;;;;10.47;9.87;;;23.70;71.00;;;;;;6257157;22;20553;-35
2021/04/26 12:25:37;;;;;;;9.93;9.40;;;23.70;71.00;;;;;;6258152;22;20668;-36
2021/04/26 12:28:06;;;;;;;10.80;10.20;;;23.70;71.00;;;;;;6259242;22;20449;-35
2021/04/26 12:30:37;;;;;;;10.37;9.30;;;23.70;71.10;;;;;;6256908;22;20542;-35
2021/04/26 12:33:19;;;;;;;10.70;10.10;;;23.70;71.10;;;;;;6250571;22;20453;-35
2021/04/26 12:35:45;;;;;;;10.50;9.70;;;23.70;71.00;;;;;;6256461;22;20445;-35
2021/04/26 12:38:12;;;;;;;10.40;9.70;;;23.70;71.10;;;;;;6261418;22;20867;-35
2021/04/26 12:40:42;;;;;;;10.33;9.83;;;23.70;71.10;;;;;;6256720;22;20436;-36
2021/04/26 12:43:11;;;;;;;10.63;9.73;;;23.70;71.20;;;;;;6253496;22;20437;-35
2021/04/26 12:45:42;;;;;;;9.87;9.37;;;23.70;71.20;;;;;;6254437;22;20463;-35
2021/04/26 12:48:11;;;;;;;9.70;8.93;;;23.70;71.30;;;;;;6253537;22;20449;-35
2021/04/26 12:50:41;;;;;;;11.20;10.30;;;23.80;71.40;;;;;;6252182;22;20784;-33
2021/04/26 12:53:14;;;;;;;10.07;9.47;;;23.70;71.40;;;;;;6251407;22;20449;-34
2021/04/26 12:55:44;;;;;;;11.40;10.50;;;23.70;71.40;;;;;;6251925;22;20844;-36
2021/04/26 12:58:13;;;;;;;10.00;9.40;;;23.70;71.40;;;;;;6249216;22;20733;-36
2021/04/26 13:00:45;;;;;;;10.53;9.93;;;23.70;71.50;;;;;;6253815;22;20500;-35
2021/04/26 13:03:23;;;;;;;10.47;9.80;;;23.70;71.50;;;;;;6255025;22;20443;-36
2021/04/26 13:05:52;;;;;;;9.50;9.07;;;23.70;71.60;;;;;;6256722;22;20451;-36
2021/04/26 13:08:21;;;;;;;10.30;9.70;;;23.70;71.50;;;;;;6255061;22;20552;-35
2021/04/26 13:10:48;;;;;;;10.80;10.10;;;23.70;71.50;;;;;;6226340;22;20518;-35
2021/04/26 13:13:14;;;;;;;10.80;10.13;;;23.70;71.60;;;;;;6257660;22;20943;-35
2021/04/26 13:15:42;;;;;;;10.00;9.40;;;23.70;71.60;;;;;;6256010;22;20441;-36
2021/04/26 13:18:14;;;;;;;10.43;9.83;;;23.70;71.60;;;;;;6252368;22;20445;-36
2021/04/26 13:20:42;;;;;;;10.83;10.07;;;23.70;71.70;;;;;;6249062;22;20757;-35
2021/04/26 13:23:13;;;;;;;10.13;9.73;;;23.70;71.70;;;;;;6248240;22;21022;-35
2021/04/26 13:25:40;;;;;;;10.43;9.73;;;23.70;71.70;;;;;;6252484;22;20916;-36
2021/04/26 13:28:07;;;;;;;10.77;10.10;;;23.70;71.60;;;;;;6250220;22;20465;-36
2021/04/26 13:30:34;;;;;;;10.27;9.70;;;23.70;71.70;;;;;;6260350;22;20902;-36
2021/04/26 13:33:02;;;;;;;10.77;10.27;;;23.70;71.70;;;;;;6260286;22;20445;-35
2021/04/26 13:35:29;;;;;;;10.50;9.87;;;23.70;71.70;;;;;;6255732;22;20545;-36
2021/04/26 13:37:55;;;;;;;10.10;9.40;;;23.70;71.70;;;;;;6246731;22;20455;-35
2021/04/26 13:40:22;;;;;;;10.93;10.23;;;23.70;71.70;;;;;;6247560;22;20445;-36
2021/04/26 13:42:49;;;;;;;10.73;9.90;;;23.70;71.70;;;;;;6224812;22;20557;-36
2021/04/26 13:45:16;;;;;;;10.13;9.50;;;23.70;71.80;;;;;;6246635;22;20872;-35
2021/04/26 13:47:42;;;;;;;10.30;9.80;;;23.70;71.80;;;;;;6253815;22;20636;-35
2021/04/26 13:50:10;;;;;;;11.73;11.03;;;23.70;71.80;;;;;;6253499;22;20695;-36
2021/04/26 13:52:36;;;;;;;10.33;9.80;;;23.70;71.80;;;;;;6252706;22;20767;-36
2021/04/26 13:55:03;;;;;;;9.80;9.30;;;23.70;71.90;;;;;;6252369;22;20465;-35
2021/04/26 13:57:30;;;;;;;10.53;9.93;;;23.70;72.10;;;;;;6249042;22;20450;-35
2021/04/26 13:59:57;;;;;;;11.20;10.53;;;23.70;72.10;;;;;;6250044;22;20625;-35
2021/04/26 14:02:23;;;;;;;10.37;9.73;;;23.70;72.20;;;;;;6252774;22;20470;-35
2021/04/26 14:04:50;;;;;;;10.67;10.00;;;23.70;72.20;;;;;;6255371;22;20444;-36
2021/04/26 14:07:17;;;;;;;10.70;10.10;;;23.70;72.30;;;;;;6258946;22;20543;-36
2021/04/26 14:09:44;;;;;;;12.80;11.57;;;23.70;72.30;;;;;;6259329;22;20473;-35
2021/04/26 14:12:11;;;;;;;10.90;10.10;;;23.70;72.30;;;;;;6256595;22;20843;-36
2021/04/26 14:14:37;;;;;;;10.73;10.00;;;23.70;72.30;;;;;;6259632;22;20547;-36
2021/04/26 14:17:04;;;;;;;10.87;10.23;;;23.70;72.30;;;;;;6260654;22;21105;-36
2021/04/26 14:19:31;;;;;;;10.47;9.90;;;23.70;72.30;;;;;;6258465;22;20434;-36
2021/04/26 14:21:57;;;;;;;10.53;9.87;;;23.70;72.30;;;;;;6262018;22;20457;-36
2021/04/26 14:24:26;;;;;;;11.20;10.50;;;23.70;72.30;;;;;;6260754;22;20480;-36
2021/04/26 14:26:54;;;;;;;11.13;10.43;;;23.70;72.30;;;;;;6260316;22;20702;-36
2021/04/26 14:29:22;;;;;;;10.00;9.50;;;23.70;72.30;;;;;;6261922;22;20481;-36
2021/04/26 14:31:49;;;;;;;11.50;10.60;;;23.70;72.40;;;;;;6261229;22;20810;-35
2021/04/26 14:34:17;;;;;;;11.53;10.60;;;23.70;72.40;;;;;;6259647;22;20569;-35
2021/04/26 14:36:44;;;;;;;11.40;10.60;;;23.70;72.40;;;;;;6263229;22;20440;-36
2021/04/26 14:39:12;;;;;;;11.10;10.50;;;23.70;72.40;;;;;;6262108;22;20441;-36
2021/04/26 14:41:40;;;;;;;10.83;10.13;;;23.70;72.40;;;;;;6261360;22;20461;-35
2021/04/26 14:44:08;;;;;;;10.70;10.07;;;23.70;72.40;;;;;;6261401;22;20443;-35
2021/04/26 14:46:35;;;;;;;11.10;10.40;;;23.70;72.40;;;;;;6264520;22;21131;-36
2021/04/26 14:49:03;;;;;;;9.93;9.23;;;23.70;72.40;;;;;;6265077;22;20446;-35
2021/04/26 14:51:31;;;;;;;10.17;9.67;;;23.70;72.30;;;;;;6264008;22;20445;-35
2021/04/26 14:53:58;;;;;;;10.53;9.87;;;23.70;72.30;;;;;;6262491;22;20458;-36
2021/04/26 14:56:24;;;;;;;10.50;9.43;;;23.70;72.30;;;;;;6261653;22;20582;-35
2021/04/26 14:58:52;;;;;;;9.33;8.63;;;23.40;53.70;;;;;;6266862;22;20456;-36
2021/04/26 15:01:18;;;;;;;9.67;9.17;;;23.00;48.50;;;;;;6266636;22;20825;-36
2021/04/26 15:03:45;;;;;;;9.63;8.83;;;22.50;48.30;;;;;;6264643;22;20426;-36
2021/04/26 15:06:12;;;;;;;10.30;9.37;;;22.10;47.90;;;;;;6266619;22;20440;-35
2021/04/26 15:08:38;;;;;;;10.10;9.50;;;21.80;47.80;;;;;;6237726;22;20741;-34
2021/04/26 15:11:05;;;;;;;9.40;8.60;;;21.80;46.10;;;;;;6265184;22;20547;-36
2021/04/26 15:13:37;;;;;;;10.30;9.60;;;21.70;45.70;;;;;;6265094;22;20453;-35
2021/04/26 15:16:05;;;;;;;9.60;8.90;;;21.60;45.50;;;;;;6267819;22;20449;-35
2021/04/26 15:18:32;;;;;;;10.00;9.20;;;21.50;45.60;;;;;;6264850;22;20482;-35
2021/04/26 15:20:58;;;;;;;9.30;8.73;;;21.40;45.20;;;;;;6240003;22;20441;-35
2021/04/26 15:23:25;;;;;;;9.10;8.60;;;21.30;44.90;;;;;;6267698;22;20517;-35
2021/04/26 15:25:52;;;;;;;9.97;9.17;;;21.20;45.00;;;;;;6270215;22;20478;-35
2021/04/26 15:28:20;;;;;;;9.10;8.70;;;21.40;47.70;;;;;;6271327;22;20451;-35
2021/04/26 15:30:47;;;;;;;10.30;9.60;;;21.70;50.10;;;;;;6272040;22;20802;-35
2021/04/26 15:33:16;;;;;;;9.87;9.20;;;21.80;51.70;;;;;;6270547;22;20458;-35
2021/04/26 15:35:44;;;;;;;9.07;8.67;;;22.10;53.00;;;;;;6269492;22;20439;-35
2021/04/26 15:38:10;;;;;;;9.63;9.03;;;22.30;54.00;;;;;;6266258;22;20444;-34
2021/04/26 15:40:39;;;;;;;9.70;9.10;;;22.40;54.70;;;;;;6266366;22;20451;-35
2021/04/26 15:43:06;;;;;;;9.33;8.83;;;22.50;55.40;;;;;;6269232;22;20448;-36
2021/04/26 15:45:34;;;;;;;9.40;8.70;;;22.60;56.00;;;;;;6268038;22;20455;-34
2021/04/26 15:48:01;;;;;;;9.60;8.90;;;22.70;56.60;;;;;;6268107;22;20510;-34
2021/04/26 15:50:29;;;;;;;9.43;8.93;;;22.80;57.00;;;;;;6267498;22;20506;-35
2021/04/26 15:52:56;;;;;;;9.63;9.07;;;22.80;57.30;;;;;;6265411;22;20657;-35
2021/04/26 15:55:26;;;;;;;9.37;8.70;;;22.90;57.60;;;;;;6265798;22;20409;-34
2021/04/26 15:57:53;;;;;;;9.20;8.70;;;22.90;57.90;;;;;;6271944;22;20812;-35